Desmet, ID (83824)

11:16 PM PDT on September 16, 2014 (GMT -0700)
KWAGARFI3 | Change Station
CLOSE
Current Station
Personal Weather Station
Location: Garfield, WA
Elevation: 2520 ft
Nearby Weather Stations

Elev 2520 ft 47.01 °N, 117.15 °W | Updated 1 minute ago

Clear
Clear
50.2 °F
Feels Like 50.2 °F
N
0.0
Wind Variable Wind from SW
Gusts 0.0 mph

Today
High -- | Low -- °F
--% Chance of Precip.
Yesterday
High -- | Low -- °F
Precip. -- in
6:26 AM 6:57 PM
Last Quarter, 39% visible
Pressure 29.83 in
Visibility 10.0 miles
Clouds Clear
Dew Point 30 °F
Humidity 45%
Rainfall 0.00 in
Snow Depth 0 in , 0 in , 0 in
UV 0 out of 12
Pollen 7.20 out of 12
PM2.5 Good
Flu Activity Not available.
METAR KPUW 170553Z AUTO 00000KT 10SM CLR 13/M02 A2987 RMK AO2 SLP101 T01331017 10278 20122 55000

More Conditions Fewer Conditions

Pressure 29.83 in
Visibility 10.0 miles
Clouds Clear
Dew Point 30 °F
Humidity 45%
Rainfall 0.00 in
Snow Depth 0 in , 0 in , 0 in
UV 0 out of 12
Pollen 7.20 out of 12
PM2.5 Good
Flu Activity Not available.
METAR KPUW 170553Z AUTO 00000KT 10SM CLR 13/M02 A2987 RMK AO2 SLP101 T01331017 10278 20122 55000

More Conditions Fewer Conditions

10-Day Weather Forecast

Almanac

Astronomy

Sep. 16, 2014 Rise Set
Actual Time 6:26 AM PDT 6:57 PM PDT
Civil Twilight 5:55 AM PDT 7:27 PM PDT
Nautical Twilight 5:19 AM PDT 8:04 PM PDT
Astronomical Twilight 4:41 AM PDT 8:41 PM PDT
Moon No Moon Rise 2:41 PM PDT (9/16)
Length of Visible Light 13h 31m
Length of Day
12h 30m
Tomorrow will be 3m 20s shorter.
Last Quarter, 39% of the Moon is Illuminated
Sep 17
Last Quarter
Sep 24
New
Oct 1
First Quarter
Oct 8
Full
Oct 15
Last Quarter

Yesterday's Extremes

State Highs State Lows

Community

WunderPhotos

Upload Photos

1,753,970 photos uploaded!

Nearby

Air Quality

  Air Quality AQ Index Pollutant
Yesterday Moderate
PM2.5
Current Good
PM2.5
Tuesday Moderate
PM2.5
Wednesday Good
PM2.5

Snow Depth

Station Depth Elevation
Magic Mountain 0 in 6880 ft
Secesh Summit 0 in 6520 ft
Lost-Wood Divide 0 in 7900 ft
Bear Basin 0 in 5350 ft
Mill Creek Summit 1 in 8800 ft

Earthquake Activity

City Distance Mag. Time & Date
No recent earthquake activity has been reported nearby.
Minimum magnitude displayed is 2.5.

Coastal Water Temperatures

Place Temperature
No Stations Reporting

Nearby Weather Stations